Vulcan, Canada
Current Conditions -  °F | °C
As of 11:00 AM on Friday 24 Oct 2014 (Local Time) from CYQL Reporting Station
Broken Clouds Broken Clouds  
Wind Chill: 52°   Ceiling: 27000
Heat Index: 52°   Visibility: 40mi
Dew Point: 23°   Wind: 23mph
Humidity: 33%   Direction: 260°W
Pressure: 29.95"   Gusts: 39mph
Location:  50.4°N, 113.25°W
Report Text: CYQL 241700Z 26020G34KT 40SM FEW060 BKN270 11/M05 A2995 RMK SC1CI5 SC TR SLP149 DENSITY ALT 3300FT
Loading
Personal Weather Stations






























Interactive Weather Map
Tropical Storm Tracking
New forecast layout! Learn more

10-Day Weather Forecast

Advertisements
Track Severe Weather on mobile